Terminal Aerodrome Forecast
Issued by NWS

Home | Current Version | Previous Version | Text Only | Print | Product List | Glossary On
Versions: 1 2 3 4 5 6 7 8 9 10 11 12
000
FTUS44 KBMX 311700
TAFMGM
TAF
KMGM 311732Z 3118/0118 12004KT P6SM SCT250
     FM312200 12003KT P6SM OVC250
     FM011400 13009KT P6SM BKN025=

USA.gov is the U.S. government's official web portal to all federal, state and local government web resources and services.